| time (UTC) | temp C | wind direction | speed KPH | gust KPH | rain 1hr cm | rain 24hr cm | rain mn cm | humidity % | barometer mb |
| 20260507150903 | 16 | 28 | 3.2 | 11.3 | 0.00 | 0.66 | 0.15 | 90 | 1013.9 |
| 20260507150003 | 16 | 4 | 1.6 | 11.3 | 0.00 | 0.66 | 0.15 | 93 | 1014.0 |
| 20260507145403 | 15 | 28 | 1.6 | 11.3 | 0.00 | 0.66 | 0.15 | 93 | 1014.0 |
| 20260507144503 | 15 | 14 | 1.6 | 6.4 | 0.00 | 0.66 | 0.15 | 94 | 1013.8 |
| 20260507143624 | 15 | 27 | 3.2 | 11.3 | 0.00 | 0.66 | 0.15 | 95 | 1013.8 |
| 20260507142703 | 14 | 7 | 3.2 | 12.9 | 0.00 | 0.66 | 0.15 | 96 | 1014.0 |
| 20260507141803 | 14 | 16 | 1.6 | 9.7 | 0.00 | 0.66 | 0.15 | 97 | 1014.2 |
| 20260507140903 | 14 | 26 | 1.6 | 9.7 | 0.00 | 0.66 | 0.15 | 98 | 1014.2 |
| 20260507140024 | 15 | 14 | 1.6 | 4.8 | 0.00 | 0.66 | 0.15 | 98 | 1014.4 |
| 20260507135403 | 15 | 48 | 0.0 | 3.2 | 0.00 | 0.66 | 0.15 | 98 | 1014.1 |
| 20260507134503 | 15 | 42 | 1.6 | 6.4 | 0.00 | 0.66 | 0.15 | 98 | 1014.2 |
| 20260507133603 | 15 | 58 | 0.0 | 3.2 | 0.00 | 0.66 | 0.15 | 99 | 1014.1 |
| 20260507132703 | 15 | 58 | 0.0 | 1.6 | 0.00 | 0.66 | 0.15 | 99 | 1014.0 |
| 20260507131803 | 14 | 45 | 0.0 | 1.6 | 0.00 | 0.66 | 0.15 | 99 | 1014.0 |
| 20260507130903 | 14 | 9 | 0.0 | 1.6 | 0.00 | 0.66 | 0.15 | 99 | 1013.9 |
| 20260507130024 | 14 | 53 | 0.0 | 1.6 | 0.00 | 0.66 | 0.15 | 99 | 1014.2 |
| 20260507125403 | 14 | 54 | 0.0 | 1.6 | 0.00 | 0.66 | 0.15 | 99 | 1014.1 |
| 20260507124503 | 14 | 54 | 0.0 | 1.6 | 0.03 | 0.66 | 0.15 | 99 | 1013.9 |
| 20260507123603 | 13 | 0 | 0.0 | 0.0 | 0.05 | 0.66 | 0.15 | 99 | 1014.0 |
| 20260507122705 | 13 | 0 | 0.0 | 0.0 | 0.08 | 0.66 | 0.15 | 99 | 1014.0 |
| 20260507121803 | 13 | 53 | 0.0 | 1.6 | 0.08 | 0.66 | 0.15 | 99 | 1014.4 |
| 20260507120903 | 13 | 0 | 0.0 | 0.0 | 0.10 | 0.66 | 0.15 | 99 | 1014.7 |
| 20260507120024 | 12 | 0 | 0.0 | 0.0 | 0.10 | 0.66 | 0.15 | 99 | 1014.7 |
| 20260507115403 | 12 | 0 | 0.0 | 0.0 | 0.08 | 0.64 | 0.13 | 99 | 1015.0 |
| 20260507114503 | 12 | 0 | 0.0 | 0.0 | 0.08 | 0.61 | 0.10 | 99 | 1015.1 |
| 20260507113603 | 12 | 0 | 0.0 | 0.0 | 0.05 | 0.58 | 0.08 | 99 | 1015.3 |
| 20260507112703 | 12 | 0 | 0.0 | 0.0 | 0.05 | 0.58 | 0.08 | 99 | 1014.8 |
| 20260507100003 | 12 | 40 | 0.0 | 3.2 | 0.00 | 0.53 | 0.03 | 99 | 1014.0 |
| 20260507095403 | 12 | 69 | 0.0 | 1.6 | 0.00 | 0.53 | 0.03 | 99 | 1014.2 |
| 20260507094503 | 12 | 0 | 0.0 | 0.0 | 0.00 | 0.53 | 0.03 | 99 | 1014.2 |
| 20260507093603 | 12 | 142 | 0.0 | 1.6 | 0.00 | 0.53 | 0.03 | 99 | 1014.5 |
| 20260507092703 | 12 | 0 | 0.0 | 0.0 | 0.00 | 0.53 | 0.03 | 99 | 1014.3 |
| 20260507091803 | 12 | 0 | 0.0 | 0.0 | 0.00 | 0.53 | 0.03 | 99 | 1014.7 |
| 20260507090903 | 12 | 0 | 0.0 | 0.0 | 0.00 | 0.53 | 0.03 | 99 | 1014.3 |
| 20260507090004 | 12 | 0 | 0.0 | 0.0 | 0.00 | 0.53 | 0.03 | 99 | 1014.3 |
| 20260507085403 | 12 | 0 | 0.0 | 0.0 | 0.00 | 0.53 | 0.03 | 99 | 1014.9 |
| 20260507084503 | 12 | 0 | 0.0 | 0.0 | 0.00 | 0.51 | 0.00 | 99 | 1014.4 |
| 20260507083603 | 12 | 0 | 0.0 | 0.0 | 0.00 | 0.51 | 0.00 | 99 | 1014.3 |
| 20260507082703 | 12 | 0 | 0.0 | 0.0 | 0.00 | 0.51 | 0.00 | 99 | 1014.0 |
| 20260507081803 | 12 | 0 | 0.0 | 0.0 | 0.00 | 0.51 | 0.00 | 99 | 1014.4 |
| 20260507080903 | 12 | 0 | 0.0 | 0.0 | 0.00 | 0.51 | 0.00 | 99 | 1014.9 |
| 20260507080003 | 12 | 0 | 0.0 | 0.0 | 0.00 | 0.51 | 0.00 | 99 | 1015.1 |
| 20260507075424 | 12 | 0 | 0.0 | 0.0 | 0.00 | 0.51 | 0.00 | 99 | 1015.0 |
| 20260507074503 | 12 | 143 | 0.0 | 1.6 | 0.00 | 0.51 | 0.00 | 99 | 1014.9 |
| 20260507073603 | 12 | 0 | 0.0 | 0.0 | 0.00 | 0.51 | 0.00 | 99 | 1015.0 |
| 20260507072703 | 13 | 0 | 0.0 | 0.0 | 0.00 | 0.51 | 0.00 | 99 | 1014.8 |
| 20260507071803 | 13 | 0 | 0.0 | 0.0 | 0.00 | 0.51 | 0.00 | 99 | 1014.7 |
| 20260507070903 | 13 | 149 | 0.0 | 1.6 | 0.00 | 0.51 | 0.00 | 99 | 1014.8 |
| 20260507070005 | 13 | 128 | 0.0 | 3.2 | 0.00 | 0.51 | 0.00 | 99 | 1014.8 |
| 20260507065403 | 13 | 134 | 0.0 | 1.6 | 0.00 | 0.51 | 0.00 | 99 | 1015.0 |
| 20260507064503 | 13 | 67 | 0.0 | 1.6 | 0.00 | 0.51 | 0.00 | 99 | 1015.5 |
| 20260507063603 | 13 | 0 | 0.0 | 0.0 | 0.00 | 0.51 | 0.00 | 99 | 1016.0 |
| 20260507062703 | 13 | 50 | 0.0 | 3.2 | 0.00 | 0.51 | 0.00 | 99 | 1015.4 |
| 20260507061803 | 13 | 66 | 0.0 | 3.2 | 0.00 | 0.51 | 0.00 | 99 | 1015.4 |
| 20260507060903 | 13 | 97 | 1.6 | 4.8 | 0.00 | 0.51 | 0.00 | 99 | 1015.7 |
| 20260507060003 | 13 | 137 | 0.0 | 4.8 | 0.00 | 0.51 | 0.00 | 99 | 1016.1 |
| 20260507055403 | 13 | 140 | 0.0 | 4.8 | 0.00 | 0.51 | 0.00 | 99 | 1016.1 |
| 20260507054503 | 13 | 0 | 0.0 | 0.0 | 0.00 | 0.51 | 0.00 | 99 | 1016.1 |
| 20260507053603 | 13 | 0 | 0.0 | 0.0 | 0.00 | 0.51 | 0.00 | 99 | 1016.2 |
| 20260507052703 | 13 | 85 | 0.0 | 1.6 | 0.00 | 0.51 | 0.00 | 99 | 1016.9 |
| 20260507051803 | 13 | 85 | 0.0 | 1.6 | 0.00 | 0.51 | 0.00 | 99 | 1016.8 |
| 20260507050903 | 13 | 85 | 0.0 | 1.6 | 0.00 | 0.51 | 0.00 | 99 | 1016.8 |
| 20260507050003 | 13 | 77 | 0.0 | 1.6 | 0.00 | 0.51 | 0.00 | 99 | 1016.4 |
| 20260507045424 | 13 | 77 | 0.0 | 1.6 | 0.00 | 0.51 | 0.00 | 99 | 1016.8 |
| 20260507044503 | 13 | 0 | 0.0 | 0.0 | 0.00 | 0.51 | 0.00 | 99 | 1017.1 |
| 20260507043603 | 13 | 45 | 0.0 | 1.6 | 0.00 | 0.51 | 0.00 | 99 | 1017.2 |
| 20260507042703 | 13 | 0 | 0.0 | 0.0 | 0.00 | 0.51 | 0.00 | 99 | 1017.2 |
| 20260507041803 | 13 | 85 | 0.0 | 1.6 | 0.00 | 0.51 | 0.00 | 99 | 1017.4 |
| 20260507040903 | 13 | 70 | 0.0 | 1.6 | 0.00 | 0.51 | 0.00 | 99 | 1017.7 |
| 20260507040025 | 13 | 116 | 0.0 | 3.2 | 0.00 | 0.51 | 0.00 | 99 | 1017.3 |
| 20260507035403 | 13 | 55 | 0.0 | 1.6 | 0.00 | 0.51 | 0.51 | 99 | 1017.4 |
| 20260507034503 | 13 | 52 | 0.0 | 1.6 | 0.00 | 0.51 | 0.51 | 99 | 1017.1 |
| 20260507033603 | 13 | 103 | 0.0 | 1.6 | 0.00 | 0.51 | 0.51 | 99 | 1016.8 |
| 20260507032703 | 13 | 120 | 0.0 | 3.2 | 0.00 | 0.51 | 0.51 | 99 | 1017.2 |
| 20260507031803 | 13 | 127 | 0.0 | 3.2 | 0.03 | 0.51 | 0.51 | 99 | 1017.1 |
| 20260507030924 | 13 | 129 | 0.0 | 1.6 | 0.05 | 0.51 | 0.51 | 98 | 1016.5 |
| 20260507030003 | 13 | 0 | 0.0 | 0.0 | 0.05 | 0.51 | 0.51 | 98 | 1016.4 |
| 20260507025403 | 13 | 0 | 0.0 | 0.0 | 0.05 | 0.51 | 0.51 | 98 | 1016.3 |
| 20260507024503 | 13 | 0 | 0.0 | 0.0 | 0.10 | 0.51 | 0.51 | 98 | 1016.3 |
| 20260507023603 | 13 | 0 | 0.0 | 0.0 | 0.15 | 0.51 | 0.51 | 98 | 1016.5 |
| 20260507022703 | 13 | 99 | 0.0 | 4.8 | 0.18 | 0.51 | 0.51 | 98 | 1016.5 |
| 20260507021803 | 13 | 39 | 1.6 | 3.2 | 0.18 | 0.48 | 0.48 | 98 | 1016.3 |
| 20260507020903 | 13 | 359 | 0.0 | 1.6 | 0.15 | 0.48 | 0.48 | 97 | 1018.0 |
| 20260507020003 | 13 | 39 | 0.0 | 1.6 | 0.15 | 0.48 | 0.48 | 97 | 1017.5 |
| 20260507015403 | 13 | 22 | 0.0 | 1.6 | 0.15 | 0.46 | 0.46 | 97 | 1017.7 |
| 20260507014503 | 14 | 9 | 0.0 | 3.2 | 0.13 | 0.43 | 0.43 | 97 | 1018.0 |
| 20260507013603 | 14 | 69 | 0.0 | 1.6 | 0.05 | 0.36 | 0.36 | 95 | 1018.0 |
| 20260507012703 | 14 | 78 | 0.0 | 1.6 | 0.05 | 0.33 | 0.33 | 95 | 1017.4 |
| 20260507011803 | 14 | 50 | 0.0 | 1.6 | 0.03 | 0.33 | 0.33 | 96 | 1017.5 |
| 20260507010903 | 14 | 144 | 0.0 | 1.6 | 0.03 | 0.30 | 0.30 | 96 | 1017.3 |
| 20260507010003 | 14 | 71 | 0.0 | 1.6 | 0.03 | 0.30 | 0.30 | 96 | 1017.1 |
| 20260507005403 | 15 | 39 | 0.0 | 3.2 | 0.03 | 0.30 | 0.30 | 96 | 1016.9 |
| 20260507004503 | 15 | 59 | 1.6 | 4.8 | 0.05 | 0.30 | 0.30 | 96 | 1017.1 |
| 20260507003603 | 15 | 125 | 1.6 | 12.9 | 0.13 | 0.30 | 0.30 | 96 | 1017.0 |
| 20260507002703 | 15 | 129 | 1.6 | 11.3 | 0.13 | 0.28 | 0.28 | 96 | 1017.3 |
| 20260507001803 | 15 | 44 | 1.6 | 11.3 | 0.13 | 0.28 | 0.28 | 96 | 1017.1 |
| 20260507000903 | 15 | 108 | 0.0 | 3.2 | 0.15 | 0.28 | 0.28 | 94 | 1017.2 |
| 20260507000003 | 15 | 163 | 0.0 | 1.6 | 0.15 | 0.28 | 0.28 | 93 | 1016.5 |
| 20260506235403 | 15 | 163 | 0.0 | 1.6 | 0.15 | 0.28 | 0.28 | 94 | 1016.4 |
| 20260506234524 | 15 | 112 | 0.0 | 4.8 | 0.15 | 0.25 | 0.25 | 95 | 1017.0 |
| 20260506233603 | 16 | 133 | 0.0 | 3.2 | 0.08 | 0.18 | 0.18 | 93 | 1017.0 |
| 20260506232703 | 16 | 126 | 0.0 | 3.2 | 0.08 | 0.18 | 0.18 | 93 | 1017.0 |
| 20260506231824 | 16 | 107 | 0.0 | 3.2 | 0.08 | 0.15 | 0.15 | 91 | 1016.5 |
| 20260506230903 | 16 | 135 | 0.0 | 3.2 | 0.08 | 0.15 | 0.15 | 92 | 1016.4 |
| 20260506230024 | 16 | 116 | 0.0 | 6.4 | 0.08 | 0.15 | 0.15 | 93 | 1016.5 |
| 20260506225403 | 16 | 127 | 0.0 | 6.4 | 0.05 | 0.13 | 0.13 | 91 | 1016.5 |
| 20260506224503 | 17 | 106 | 0.0 | 1.6 | 0.03 | 0.10 | 0.10 | 89 | 1016.4 |
| 20260506223603 | 17 | 129 | 0.0 | 1.6 | 0.03 | 0.10 | 0.10 | 89 | 1016.7 |
| 20260506222703 | 17 | 99 | 0.0 | 3.2 | 0.03 | 0.10 | 0.10 | 89 | 1016.4 |
| 20260506221803 | 17 | 130 | 0.0 | 3.2 | 0.03 | 0.10 | 0.10 | 90 | 1016.4 |
| 20260506220903 | 17 | 286 | 0.0 | 4.8 | 0.03 | 0.08 | 0.08 | 89 | 1017.0 |
| 20260506220003 | 17 | 17 | 0.0 | 1.6 | 0.00 | 0.05 | 0.05 | 88 | 1017.1 |
| 20260506215403 | 17 | 232 | 0.0 | 1.6 | 0.00 | 0.05 | 0.05 | 88 | 1017.1 |
| 20260506214503 | 17 | 58 | 0.0 | 1.6 | 0.00 | 0.05 | 0.05 | 88 | 1017.4 |
| 20260506213603 | 17 | 98 | 0.0 | 4.8 | 0.00 | 0.05 | 0.05 | 88 | 1016.9 |
| 20260506212703 | 17 | 147 | 1.6 | 6.4 | 0.00 | 0.05 | 0.05 | 87 | 1017.1 |
| 20260506211803 | 17 | 150 | 1.6 | 6.4 | 0.00 | 0.05 | 0.05 | 86 | 1017.1 |
| 20260506210903 | 17 | 189 | 1.6 | 9.7 | 0.00 | 0.05 | 0.05 | 86 | 1016.9 |
| 20260506210003 | 18 | 119 | 1.6 | 9.7 | 0.00 | 0.05 | 0.05 | 84 | 1016.7 |
| 20260506205403 | 18 | 135 | 1.6 | 12.9 | 0.00 | 0.05 | 0.05 | 82 | 1017.0 |
| 20260506204503 | 18 | 160 | 3.2 | 11.3 | 0.00 | 0.05 | 0.05 | 81 | 1016.7 |
| 20260506203603 | 20 | 212 | 1.6 | 6.4 | 0.00 | 0.05 | 0.05 | 79 | 1016.5 |
| 20260506202703 | 20 | 199 | 1.6 | 6.4 | 0.00 | 0.05 | 0.05 | 79 | 1016.1 |
| 20260506201803 | 20 | 166 | 1.6 | 9.7 | 0.00 | 0.05 | 0.05 | 79 | 1016.3 |
| 20260506200924 | 20 | 125 | 3.2 | 9.7 | 0.00 | 0.05 | 0.05 | 77 | 1016.4 |
| 20260506200003 | 20 | 128 | 1.6 | 9.7 | 0.00 | 0.05 | 0.05 | 76 | 1016.7 |
| 20260506195403 | 21 | 237 | 1.6 | 6.4 | 0.00 | 0.05 | 0.05 | 75 | 1017.1 |
| 20260506194503 | 21 | 145 | 3.2 | 9.7 | 0.00 | 0.05 | 0.05 | 75 | 1016.8 |
| 20260506193603 | 21 | 226 | 3.2 | 11.3 | 0.00 | 0.05 | 0.05 | 72 | 1017.1 |
| 20260506192703 | 21 | 193 | 3.2 | 11.3 | 0.00 | 0.05 | 0.05 | 72 | 1017.4 |
| 20260506191803 | 21 | 145 | 3.2 | 12.9 | 0.00 | 0.05 | 0.05 | 72 | 1017.0 |
| 20260506190903 | 21 | 138 | 1.6 | 11.3 | 0.00 | 0.05 | 0.05 | 73 | 1016.9 |
| 20260506190003 | 21 | 111 | 1.6 | 11.3 | 0.00 | 0.05 | 0.05 | 72 | 1016.5 |
| 20260506185403 | 20 | 168 | 1.6 | 11.3 | 0.00 | 0.05 | 0.05 | 73 | 1016.5 |
| 20260506184503 | 21 | 45 | 1.6 | 9.7 | 0.00 | 0.05 | 0.05 | 74 | 1016.9 |
| 20260506183603 | 21 | 168 | 1.6 | 11.3 | 0.00 | 0.05 | 0.05 | 73 | 1017.0 |
| 20260506182703 | 21 | 253 | 1.6 | 4.8 | 0.00 | 0.05 | 0.05 | 74 | 1016.5 |
| 20260506181803 | 20 | 145 | 3.2 | 11.3 | 0.00 | 0.05 | 0.05 | 77 | 1016.8 |
| 20260506180924 | 20 | 140 | 1.6 | 4.8 | 0.00 | 0.05 | 0.05 | 79 | 1016.4 |
| 20260506180004 | 19 | 141 | 1.6 | 9.7 | 0.00 | 0.05 | 0.05 | 77 | 1016.4 |
| 20260506175403 | 19 | 138 | 1.6 | 4.8 | 0.00 | 0.05 | 0.05 | 77 | 1016.8 |
| 20260506174503 | 18 | 175 | 1.6 | 4.8 | 0.00 | 0.05 | 0.05 | 79 | 1016.7 |
| 20260506173603 | 18 | 87 | 1.6 | 6.4 | 0.00 | 0.05 | 0.05 | 79 | 1016.7 |
| 20260506172703 | 18 | 178 | 1.6 | 9.7 | 0.00 | 0.05 | 0.05 | 83 | 1017.2 |
| 20260506171803 | 17 | 144 | 3.2 | 9.7 | 0.03 | 0.05 | 0.05 | 85 | 1017.1 |
| 20260506170924 | 17 | 156 | 1.6 | 6.4 | 0.05 | 0.05 | 0.05 | 86 | 1017.1 |
| 20260506170003 | 16 | 99 | 1.6 | 4.8 | 0.05 | 0.05 | 0.05 | 89 | 1018.2 |
| 20260506165403 | 16 | 138 | 1.6 | 4.8 | 0.05 | 0.05 | 0.05 | 89 | 1018.3 |
| 20260506164503 | 15 | 139 | 1.6 | 12.9 | 0.05 | 0.05 | 0.05 | 89 | 1018.4 |
| 20260506163603 | 15 | 28 | 3.2 | 16.1 | 0.05 | 0.05 | 0.05 | 90 | 1018.0 |
| 20260506162703 | 15 | 14 | 1.6 | 11.3 | 0.05 | 0.05 | 0.05 | 90 | 1018.2 |
| 20260506161803 | 15 | 68 | 1.6 | 11.3 | 0.03 | 0.03 | 0.03 | 89 | 1018.2 |
| 20260506160903 | 16 | 14 | 1.6 | 4.8 | 0.00 | 0.00 | 0.00 | 87 | 1018.5 |
| 20260506160003 | 16 | 98 | 3.2 | 14.5 | 0.00 | 0.00 | 0.00 | 83 | 1018.5 |
| 20260506155424 | 16 | 124 | 3.2 | 16.1 | 0.00 | 0.00 | 0.00 | 81 | 1018.8 |
| 20260506154503 | 16 | 198 | 3.2 | 17.7 | 0.00 | 0.00 | 0.00 | 82 | 1018.4 |
| 20260506153603 | 16 | 107 | 3.2 | 9.7 | 0.00 | 0.00 | 0.00 | 81 | 1018.5 |
| 20260506152724 | 16 | 213 | 3.2 | 11.3 | 0.00 | 0.00 | 0.00 | 82 | 1018.1 |
| 20260506151803 | 16 | 152 | 3.2 | 12.9 | 0.00 | 0.00 | 0.00 | 80 | 1017.8 |